Ada, West Virginia
Current Conditions -  °F | °C
As of 3:06 PM on Friday 28 Nov 2014 (Local Time) from KBLF Reporting Station
Scattered Clouds Scattered Clouds  
Wind Chill: 22°   Ceiling: Unl
Heat Index: 28°   Visibility: 10mi
Dew Point: 16°   Wind: 6mph
Humidity: 61%   Direction: 250°WSW
Pressure: 30.21"   Gusts: NA
Location:  37.2994°N, 81.226°W
Report Text: KBLF 282006Z AUTO 25005KT 10SM SCT021 M02/M09 A3021 RMK AO2 T10221089 $
Loading
Personal Weather Stations






























Interactive Weather Map New forecast layout! Learn more

10-Day Weather Forecast

Advertisements
Track Severe Weather on mobile